Flight Track Log - Related Links

Times and Time Zones

All times are in EDT time to prevent confusion due to time zone crossing. See the DLH1684 flight status page for this flight to view local times or setup timezone preferences in your user account.

Time Position Orientation Groundspeed Altitude Reporting Facility
EDT Latitude Longitude Course Direction KTS MPH feet Rate Location/Type
Mon 03:23:16 PM 48.3419 11.7679 263° West 168 193 1,800  Level FlightAware ADS-B
Mon 03:23:41 PM 48.3394 11.7393 257° West 168 193 2,800 2,571 Climbing FlightAware ADS-B
Mon 03:23:51 PM 48.3377 11.7278 241° Southwest 163 188 3,300 2,400 Climbing FlightAware ADS-B
Mon 03:23:56 PM 48.3359 11.7229 233° Southwest 168 193 3,400 1,800 Climbing FlightAware ADS-B
Mon 03:24:01 PM 48.3332 11.7175 53° Northeast 168 193 3,600 176 Climbing FlightAware ADS-B
Mon 03:24:30 PM 48.3340 11.7191 209° Southwest 171 197 3,500 409 Descending FlightAware ADS-B
Mon 03:24:45 PM 48.3208 11.7081 181° South 189 217 3,900 3,000 Climbing FlightAware ADS-B
Mon 03:24:50 PM 48.3039 11.7075 163° South 206 237 4,500 5,100 Climbing FlightAware ADS-B
Mon 03:25:05 PM 48.2744 11.7207 146° Southeast 236 272 5,600 3,086 Climbing FlightAware ADS-B
Mon 03:25:25 PM 48.2545 11.7409 144° Southeast 262 302 6,300 1,800 Climbing FlightAware ADS-B
Mon 03:25:45 PM 48.2336 11.7635 143° Southeast 283 326 6,800 1,600 Climbing FlightAware ADS-B
Mon 03:26:10 PM 48.2070 11.7932 132° Southeast 283 326 7,500 1,467 Climbing FlightAware ADS-B
Mon 03:26:30 PM 48.1892 11.8233 115° Southeast 297 342 7,900 1,200 Climbing FlightAware ADS-B
Mon 03:26:35 PM 48.1862 11.8331 109° East 297 342 8,000 1,200 Climbing FlightAware ADS-B
Mon 03:26:40 PM 48.1839 11.8434 99° East 299 344 8,100 600 Climbing FlightAware ADS-B
Mon 03:26:45 PM 48.1828 11.8537 88° East 300 345 8,100 800 Level FlightAware ADS-B
Mon 03:27:10 PM 48.1843 11.9062 81° East 311 358 8,500 800 Climbing FlightAware ADS-B
Mon 03:27:30 PM 48.1889 11.9493 81° East 329 379 8,700 600 Climbing FlightAware ADS-B
Mon 03:27:50 PM 48.1937 11.9966 94° East 346 398 8,900 273 Climbing FlightAware ADS-B
Mon 03:28:36 PM 48.1916 12.0472 99° East 351 404 9,000 1,663 Climbing FlightAware ADS-B
Mon 03:29:31 PM 48.1782 12.1726 86° East 362 417 11,700 3,158 Climbing FlightAware ADS-B
Mon 03:30:11 PM 48.1849 12.3217 86° East 397 457 14,000 3,750 Climbing FlightAware ADS-B
Mon 03:30:51 PM 48.1919 12.4625 86° East 400 460 16,700 3,343 Climbing FlightAware ADS-B
Mon 03:31:21 PM 48.1956 12.5455 86° East 411 473 17,900 2,486 Climbing FlightAware ADS-B
Mon 03:32:01 PM 48.2012 12.6676 86° East 424 488 19,600 2,229 Climbing FlightAware ADS-B
Mon 03:32:31 PM 48.2050 12.7548 86° East 437 503 20,500 2,123 Climbing FlightAware ADS-B
Mon 03:33:06 PM 48.2091 12.8562 89° East 442 509 21,900 2,314 Climbing FlightAware ADS-B
Mon 03:33:41 PM 48.2106 12.9702 89° East 448 516 23,200 2,113 Climbing FlightAware ADS-B
Mon 03:34:17 PM 48.2119 13.0805 89° East 454 522 24,400 1,840 Climbing FlightAware ADS-B
Mon 03:34:56 PM 48.2135 13.2083 89° East 466 536 25,500 1,565 Climbing FlightAware ADS-B
Mon 03:35:26 PM 48.2142 13.3061 89° East 474 545 26,200 1,545 Climbing FlightAware ADS-B
Mon 03:36:02 PM 48.2153 13.4108 89° East 477 549 27,200 1,714 Climbing FlightAware ADS-B
Mon 03:36:36 PM 48.2161 13.5292 89° East 483 556 28,200 1,627 Climbing FlightAware ADS-B
Mon 03:37:01 PM 48.2167 13.6189 89° East 487 560 28,800 1,385 Climbing FlightAware ADS-B
Mon 03:37:41 PM 48.2174 13.7272 90° East 488 562 29,700 1,680 Climbing FlightAware ADS-B
Mon 03:38:16 PM 48.2180 13.8479 90° East 485 558 30,900 2,057 Climbing FlightAware ADS-B
Mon 03:38:51 PM 48.2186 13.9828 90° East 477 549 32,100 1,569 Climbing FlightAware ADS-B
Mon 03:39:21 PM 48.2189 14.0869 90° East 482 555 32,600 720 Climbing FlightAware ADS-B
Mon 03:40:06 PM 48.2192 14.2386 90° East 486 559 33,000 300 Climbing FlightAware ADS-B
Mon 03:40:41 PM 48.2194 14.3512 90° East 482 555 33,000  Level FlightAware ADS-B
Mon 03:41:26 PM 48.2192 14.5093 271° West 488 562 33,000  Level FlightAware ADS-B
Mon 03:42:01 PM 48.2193 14.4934 90° East 487 560 33,000  Level FlightAware ADS-B
Mon 03:42:36 PM 48.2188 14.7306 90° East 489 563 33,000  Level FlightAware ADS-B
Mon 03:43:11 PM 48.2185 14.8438 90° East 489 563 33,000  Level FlightAware ADS-B
Mon 03:43:41 PM 48.2180 14.9467 90° East 489 563 33,000  Level FlightAware ADS-B
Mon 03:44:21 PM 48.2173 15.0860 91° East 489 563 33,000  Level FlightAware ADS-B
Mon 03:44:51 PM 48.2166 15.1863 90° East 486 559 33,000  Level FlightAware ADS-B
Mon 03:45:32 PM 48.2157 15.3320 91° East 484 557 33,000  Level FlightAware ADS-B
Mon 03:46:02 PM 48.2148 15.4317 91° East 482 555 33,000  Level FlightAware ADS-B
Mon 03:46:43 PM 48.2136 15.5685 91° East 481 554 33,000  Level FlightAware ADS-B
Mon 03:47:13 PM 48.2126 15.6704 91° East 480 552 33,000  Level FlightAware ADS-B
Mon 03:47:53 PM 48.2107 15.8026 91° East 480 552 33,000  Level FlightAware ADS-B
Mon 03:48:25 PM 48.2098 15.8700 91° East 481 554 33,000  Level FlightAware ADS-B
Mon 03:48:55 PM 48.2084 16.0019 91° East 481 554 33,000  Level FlightAware ADS-B
Mon 03:49:35 PM 48.2064 16.1386 91° East 483 556 33,000  Level FlightAware ADS-B
Mon 03:50:07 PM 48.2048 16.2336 91° East 484 557 33,000 -343 Level FlightAware ADS-B
Mon 03:50:45 PM 48.2027 16.3687 92° East 479 551 32,600 -794 Descending FlightAware ADS-B
Mon 03:51:15 PM 48.2008 16.4721 92° East 476 548 32,100 -943 Descending FlightAware ADS-B
Mon 03:51:55 PM 48.1984 16.5996 92° East 479 551 31,500 -960 Descending FlightAware ADS-B
Mon 03:52:30 PM 48.1964 16.7099 92° East 469 540 30,900 -1,043 Descending FlightAware ADS-B
Mon 03:53:04 PM 48.1937 16.8287 94° East 461 531 30,300 -930 Descending FlightAware ADS-B
Mon 03:53:41 PM 48.1888 16.9321 101° East 453 521 29,800 -957 Descending FlightAware ADS-B
Mon 03:54:13 PM 48.1767 17.0274 107° East 448 516 29,200 -1,500 Descending FlightAware ADS-B
Mon 03:54:53 PM 48.1512 17.1529 108° East 440 506 28,000 -1,541 Descending FlightAware ADS-B
Mon 03:55:27 PM 48.1326 17.2395 108° East 438 504 27,300 -1,477 Descending FlightAware ADS-B
Mon 03:55:58 PM 48.1119 17.3361 108° East 438 504 26,400 -1,629 Descending FlightAware ADS-B
Mon 03:56:37 PM 48.0872 17.4495 108° East 426 490 25,400 -1,457 Descending FlightAware ADS-B
Mon 03:57:08 PM 48.0692 17.5303 108° East 409 471 24,700 -1,455 Descending FlightAware ADS-B
Mon 03:57:43 PM 48.0486 17.6249 108° East 396 456 23,800 -1,391 Descending FlightAware ADS-B
Mon 03:58:17 PM 48.0309 17.7052 109° East 395 455 23,100 -1,459 Descending FlightAware ADS-B
Mon 03:58:57 PM 48.0065 17.8124 119° Southeast 395 455 22,000 -1,352 Descending FlightAware ADS-B
Mon 03:59:28 PM 47.9888 17.8596 126° Southeast 392 451 21,500 -1,300 Descending FlightAware ADS-B
Mon 03:59:57 PM 47.9533 17.9335 126° Southeast 384 442 20,700 -1,500 Descending FlightAware ADS-B
Mon 04:00:36 PM 47.9166 18.0098 126° Southeast 368 423 19,800 -1,606 Descending FlightAware ADS-B
Mon 04:01:08 PM 47.8751 18.0951 126° Southeast 364 419 18,800 -1,775 Descending FlightAware ADS-B
Mon 04:01:47 PM 47.8318 18.1835 126° Southeast 364 419 17,700 -1,543 Descending FlightAware ADS-B
Mon 04:02:18 PM 47.8053 18.2381 126° Southeast 360 414 17,000 -1,457 Descending FlightAware ADS-B
Mon 04:02:57 PM 47.7685 18.3133 126° Southeast 359 413 16,000 -1,543 Descending FlightAware ADS-B
Mon 04:03:28 PM 47.7376 18.3763 126° Southeast 356 410 15,200 -1,600 Descending FlightAware ADS-B
Mon 04:03:57 PM 47.7054 18.4416 126° Southeast 347 399 14,400 -1,437 Descending FlightAware ADS-B
Mon 04:04:39 PM 47.6710 18.5118 126° Southeast 351 404 13,500 -1,421 Descending FlightAware ADS-B
Mon 04:05:13 PM 47.6348 18.5849 126° Southeast 336 387 12,600 -1,500 Descending FlightAware ADS-B
Mon 04:05:47 PM 47.6016 18.6519 126° Southeast 334 384 11,800 -971 Descending FlightAware ADS-B
Mon 04:06:21 PM 47.5876 18.6801 126° Southeast 335 386 11,500 -1,014 Descending FlightAware ADS-B
Mon 04:06:58 PM 47.5414 18.7728 127° Southeast 330 380 10,600 -1,026 Descending FlightAware ADS-B
Mon 04:07:37 PM 47.5208 18.8139 126° Southeast 328 377 10,200 -1,091 Descending FlightAware ADS-B
Mon 04:07:53 PM 47.4906 18.8746 127° Southeast 326 375 9,600 -1,579 Descending FlightAware ADS-B
Mon 04:08:15 PM 47.4690 18.9176 126° Southeast 325 374 9,200 -783 Descending FlightAware ADS-B
Mon 04:08:39 PM 47.4558 18.9442 127° Southeast 321 369 9,000 -977 Descending FlightAware ADS-B
Mon 04:08:58 PM 47.4342 18.9869 127° Southeast 315 362 8,500 -1,231 Descending FlightAware ADS-B
Mon 04:09:18 PM 47.4201 19.0150 127° Southeast 305 351 8,200 -1,333 Descending FlightAware ADS-B
Mon 04:09:34 PM 47.4005 19.0538 306° West 296 341 7,700 -682 Descending FlightAware ADS-B
Mon 04:10:02 PM 47.4009 19.0530 127° Southeast 295 339 7,700 -1,320 Level FlightAware ADS-B
Mon 04:10:24 PM 47.3611 19.1317 126° Southeast 274 315 6,600 -1,245 Descending FlightAware ADS-B
Mon 04:10:55 PM 47.3600 19.1339 127° Southeast 278 320 6,600 -1,059 Level FlightAware ADS-B
Mon 04:11:15 PM 47.3258 19.2014 128° Southeast 263 303 5,700 -1,714 Descending FlightAware ADS-B
Mon 04:11:44 PM 47.3021 19.2464 129° Southeast 242 278 5,200 -960 Descending FlightAware ADS-B
Mon 04:12:05 PM 47.2918 19.2651 129° Southeast 243 280 4,900 -878 Descending FlightAware ADS-B
Mon 04:12:25 PM 47.2764 19.2933 127° Southeast 236 272 4,600 -450 Descending FlightAware ADS-B
Mon 04:12:45 PM 47.2761 19.2939 129° Southeast 237 273 4,600 -533 Level FlightAware ADS-B
Mon 04:13:10 PM 47.2592 19.3243 128° Southeast 228 262 4,200 -1,350 Descending FlightAware ADS-B
Mon 04:13:25 PM 47.2361 19.3674 113° Southeast 215 247 3,700 -1,800 Descending FlightAware ADS-B
Mon 04:13:30 PM 47.2346 19.3725 99° East 212 244 3,600 -600 Descending FlightAware ADS-B
Mon 04:13:35 PM 47.2336 19.3813 79° East 208 239 3,600 -857 Level FlightAware ADS-B
Mon 04:13:44 PM 47.2357 19.3966 54° Northeast 205 236 3,400 -900 Descending FlightAware ADS-B
Mon 04:13:55 PM 47.2405 19.4063 44° Northeast 205 236 3,300 -500 Descending FlightAware ADS-B
Mon 04:14:20 PM 47.2559 19.4284 45° Northeast 207 238 3,100 -533 Descending FlightAware ADS-B
Mon 04:14:40 PM 47.2687 19.4470 35° Northeast 207 238 2,900 -529 Descending FlightAware ADS-B
Mon 04:14:54 PM 47.2847 19.4637 212° Southwest 198 228 2,800  Descending FlightAware ADS-B
Mon 04:15:05 PM 47.2716 19.4514 North 207 238 2,900 -414 Climbing FlightAware ADS-B
Mon 04:15:23 PM 47.3124 19.4564 332° Northwest 201 231 2,600 -615 Descending FlightAware ADS-B
Mon 04:15:44 PM 47.3298 19.4427 314° West 207 238 2,500  Descending FlightAware ADS-B
Mon 04:16:03 PM 47.3416 19.4247 313° West 188 216 2,600 -136 Climbing FlightAware ADS-B
Mon 04:16:28 PM 47.3518 19.4084 313° West 183 211 2,400 -612 Descending FlightAware ADS-B
Mon 04:16:52 PM 47.3651 19.3873 311° West 171 197 2,100 -857 Descending FlightAware ADS-B
Mon 04:17:10 PM 47.3747 19.3711 313° West 160 184 1,800 -400 Descending FlightAware ADS-B
Mon 04:17:37 PM 47.3775 19.3667 313° West 141 162 1,800 -837 Level FlightAware ADS-B
Mon 04:17:53 PM 47.3976 19.3347 312° West 134 154 1,200 -1,297 Descending FlightAware ADS-B
Mon 04:18:14 PM 47.4029 19.3259 313° West 139 160 1,000 -533 Descending FlightAware ADS-B
Mon 04:18:38 PM 47.4126 19.3105 316° Northwest 137 158 800 -293 Descending FlightAware ADS-B
Mon 04:18:55 PM 47.4135 19.3092 312° West 136 157 800 -462 Level FlightAware ADS-B
Mon 04:19:30 PM 47.4300 19.2825 313° West 130 150 400 -300 Descending FlightAware ADS-B
Mon 04:19:55 PM 47.4331 19.2775 310° West 130 150 500 120 Climbing FlightAware ADS-B
Mon 04:20:20 PM 47.4369 19.2708 284° West 130 150 500  Level FlightAware ADS-B
Mon 04:20:45 PM 47.4376 19.2667 290° West 130 150 500  Level FlightAware ADS-B
Mon 04:21:10 PM 47.4380 19.2651 209° Southwest 130 150 500  Level FlightAware ADS-B
Mon 04:21:35 PM 47.4363 19.2637 114° Southeast 130 150 500  Level FlightAware ADS-B
Mon 04:22:00 PM 47.4360 19.2647 184° South 130 150 500  Level FlightAware ADS-B
Mon 04:22:25 PM 47.4350 19.2646 184° South 130 150 500  Level FlightAware ADS-B

Login

Don't have an account? Register now (free) for customized features, flight alerts, and more!